sensor_id;sensor_type;location;lat;lon;timestamp;pressure;altitude;pressure_sealevel;temperature;humidity
14612;BME280;7392;52.078;11.650;2023-10-31T00:01:32;98824.78;;;10.54;100.00
14612;BME280;7392;52.078;11.650;2023-10-31T00:03:59;98819.50;;;10.53;100.00
14612;BME280;7392;52.078;11.650;2023-10-31T00:06:27;98824.78;;;10.54;100.00
14612;BME280;7392;52.078;11.650;2023-10-31T00:08:56;98813.28;;;10.54;100.00
14612;BME280;7392;52.078;11.650;2023-10-31T00:11:24;98815.94;;;10.54;100.00
14612;BME280;7392;52.078;11.650;2023-10-31T00:13:52;98818.59;;;10.54;100.00
14612;BME280;7392;52.078;11.650;2023-10-31T00:16:20;98816.88;;;10.53;100.00
14612;BME280;7392;52.078;11.650;2023-10-31T00:18:48;98824.81;;;10.53;100.00
14612;BME280;7392;52.078;11.650;2023-10-31T00:21:15;98816.00;;;10.52;100.00
14612;BME280;7392;52.078;11.650;2023-10-31T00:23:46;98830.13;;;10.53;100.00
14612;BME280;7392;52.078;11.650;2023-10-31T00:26:16;98830.09;;;10.54;100.00
14612;BME280;7392;52.078;11.650;2023-10-31T00:28:50;98828.34;;;10.53;100.00
14612;BME280;7392;52.078;11.650;2023-10-31T00:31:18;98832.78;;;10.53;100.00
14612;BME280;7392;52.078;11.650;2023-10-31T00:33:46;98838.09;;;10.53;100.00
14612;BME280;7392;52.078;11.650;2023-10-31T00:36:13;98837.28;;;10.51;100.00
14612;BME280;7392;52.078;11.650;2023-10-31T00:38:40;98839.94;;;10.51;100.00
14612;BME280;7392;52.078;11.650;2023-10-31T00:41:08;98844.34;;;10.50;100.00
14612;BME280;7392;52.078;11.650;2023-10-31T00:43:37;98840.84;;;10.50;100.00
14612;BME280;7392;52.078;11.650;2023-10-31T00:46:05;98846.19;;;10.48;100.00
14612;BME280;7392;52.078;11.650;2023-10-31T00:48:33;98842.69;;;10.47;100.00
14612;BME280;7392;52.078;11.650;2023-10-31T00:51:03;98850.69;;;10.46;100.00
14612;BME280;7392;52.078;11.650;2023-10-31T00:53:31;98851.50;;;10.48;100.00
14612;BME280;7392;52.078;11.650;2023-10-31T00:56:01;98855.06;;;10.47;100.00
14612;BME280;7392;52.078;11.650;2023-10-31T00:58:29;98850.66;;;10.47;100.00
14612;BME280;7392;52.078;11.650;2023-10-31T01:00:59;98843.53;;;10.48;100.00
14612;BME280;7392;52.078;11.650;2023-10-31T01:03:26;98850.66;;;10.47;100.00
14612;BME280;7392;52.078;11.650;2023-10-31T01:05:55;98849.75;;;10.47;100.00
14612;BME280;7392;52.078;11.650;2023-10-31T01:08:23;98847.09;;;10.47;100.00
14612;BME280;7392;52.078;11.650;2023-10-31T01:10:51;98841.88;;;10.45;100.00
14612;BME280;7392;52.078;11.650;2023-10-31T01:13:18;98840.13;;;10.44;100.00
14612;BME280;7392;52.078;11.650;2023-10-31T01:15:46;98843.69;;;10.43;100.00
14612;BME280;7392;52.078;11.650;2023-10-31T01:18:16;98836.59;;;10.44;100.00
14612;BME280;7392;52.078;11.650;2023-10-31T01:20:44;98839.25;;;10.44;100.00
14612;BME280;7392;52.078;11.650;2023-10-31T01:23:11;98838.38;;;10.43;100.00
14612;BME280;7392;52.078;11.650;2023-10-31T01:25:39;98828.66;;;10.44;100.00
14612;BME280;7392;52.078;11.650;2023-10-31T01:28:07;98818.03;;;10.44;100.00
14612;BME280;7392;52.078;11.650;2023-10-31T01:30:35;98813.59;;;10.44;100.00
14612;BME280;7392;52.078;11.650;2023-10-31T01:33:03;98815.34;;;10.45;100.00
14612;BME280;7392;52.078;11.650;2023-10-31T01:35:33;98820.63;;;10.45;100.00
14612;BME280;7392;52.078;11.650;2023-10-31T01:38:00;98822.34;;;10.46;100.00
14612;BME280;7392;52.078;11.650;2023-10-31T01:40:28;98825.88;;;10.47;100.00
14612;BME280;7392;52.078;11.650;2023-10-31T01:42:56;98821.44;;;10.47;100.00
14612;BME280;7392;52.078;11.650;2023-10-31T01:45:24;98818.81;;;10.47;100.00
14612;BME280;7392;52.078;11.650;2023-10-31T01:47:52;98813.44;;;10.49;100.00
14612;BME280;7392;52.078;11.650;2023-10-31T01:50:20;98811.66;;;10.50;100.00
14612;BME280;7392;52.078;11.650;2023-10-31T01:52:51;98807.19;;;10.50;100.00
14612;BME280;7392;52.078;11.650;2023-10-31T01:55:20;98801.03;;;10.50;100.00
14612;BME280;7392;52.078;11.650;2023-10-31T01:57:48;98794.81;;;10.51;100.00
14612;BME280;7392;52.078;11.650;2023-10-31T02:00:17;98793.94;;;10.50;100.00
14612;BME280;7392;52.078;11.650;2023-10-31T02:02:45;98795.69;;;10.51;100.00
14612;BME280;7392;52.078;11.650;2023-10-31T02:05:14;98795.63;;;10.53;100.00
14612;BME280;7392;52.078;11.650;2023-10-31T02:07:44;98786.84;;;10.51;100.00
14612;BME280;7392;52.078;11.650;2023-10-31T02:10:14;98794.78;;;10.52;100.00
14612;BME280;7392;52.078;11.650;2023-10-31T02:12:42;98792.13;;;10.52;100.00
14612;BME280;7392;52.078;11.650;2023-10-31T02:15:10;98791.28;;;10.50;100.00
14612;BME280;7392;52.078;11.650;2023-10-31T02:17:38;98778.91;;;10.51;100.00
14612;BME280;7392;52.078;11.650;2023-10-31T02:20:07;98776.25;;;10.51;100.00
14612;BME280;7392;52.078;11.650;2023-10-31T02:22:36;98759.44;;;10.50;100.00
14612;BME280;7392;52.078;11.650;2023-10-31T02:25:15;98765.63;;;10.51;100.00
14612;BME280;7392;52.078;11.650;2023-10-31T02:27:43;98766.47;;;10.51;100.00
14612;BME280;7392;52.078;11.650;2023-10-31T02:30:12;98766.44;;;10.53;100.00
14612;BME280;7392;52.078;11.650;2023-10-31T02:32:41;98762.91;;;10.52;100.00
14612;BME280;7392;52.078;11.650;2023-10-31T02:35:09;98754.97;;;10.52;100.00
14612;BME280;7392;52.078;11.650;2023-10-31T02:37:38;98742.50;;;10.54;100.00
14612;BME280;7392;52.078;11.650;2023-10-31T02:40:07;98735.41;;;10.55;100.00
14612;BME280;7392;52.078;11.650;2023-10-31T02:42:35;98736.25;;;10.55;100.00
14612;BME280;7392;52.078;11.650;2023-10-31T02:45:06;98730.03;;;10.56;100.00
14612;BME280;7392;52.078;11.650;2023-10-31T02:47:34;98725.59;;;10.57;100.00
14612;BME280;7392;52.078;11.650;2023-10-31T02:50:02;98728.25;;;10.57;100.00
14612;BME280;7392;52.078;11.650;2023-10-31T02:52:30;98732.69;;;10.56;100.00
14612;BME280;7392;52.078;11.650;2023-10-31T02:54:59;98716.78;;;10.56;100.00
14612;BME280;7392;52.078;11.650;2023-10-31T02:57:27;98730.00;;;10.58;100.00
14612;BME280;7392;52.078;11.650;2023-10-31T02:59:55;98719.38;;;10.58;100.00
14612;BME280;7392;52.078;11.650;2023-10-31T03:02:22;98721.97;;;10.59;100.00
14612;BME280;7392;52.078;11.650;2023-10-31T03:04:50;98721.09;;;10.59;100.00
14612;BME280;7392;52.078;11.650;2023-10-31T03:07:18;98719.31;;;10.59;100.00
14612;BME280;7392;52.078;11.650;2023-10-31T03:09:47;98725.59;;;10.57;100.00
14612;BME280;7392;52.078;11.650;2023-10-31T03:12:16;98724.72;;;10.56;100.00
14612;BME280;7392;52.078;11.650;2023-10-31T03:14:44;98724.72;;;10.56;100.00
14612;BME280;7392;52.078;11.650;2023-10-31T03:17:12;98726.53;;;10.56;100.00
14612;BME280;7392;52.078;11.650;2023-10-31T03:19:40;98711.50;;;10.55;100.00
14612;BME280;7392;52.078;11.650;2023-10-31T03:22:08;98711.50;;;10.55;100.00
14612;BME280;7392;52.078;11.650;2023-10-31T03:24:36;98705.34;;;10.54;100.00
14612;BME280;7392;52.078;11.650;2023-10-31T03:27:04;98701.81;;;10.54;100.00
14612;BME280;7392;52.078;11.650;2023-10-31T03:29:33;98700.91;;;10.55;100.00
14612;BME280;7392;52.078;11.650;2023-10-31T03:32:01;98705.34;;;10.54;100.00
14612;BME280;7392;52.078;11.650;2023-10-31T03:34:29;98708.00;;;10.54;100.00
14612;BME280;7392;52.078;11.650;2023-10-31T03:36:56;98708.00;;;10.54;100.00
14612;BME280;7392;52.078;11.650;2023-10-31T03:39:24;98721.31;;;10.53;100.00
14612;BME280;7392;52.078;11.650;2023-10-31T03:41:52;98708.09;;;10.51;100.00
14612;BME280;7392;52.078;11.650;2023-10-31T03:44:23;98716.06;;;10.51;100.00
14612;BME280;7392;52.078;11.650;2023-10-31T03:46:52;98698.38;;;10.50;100.00
14612;BME280;7392;52.078;11.650;2023-10-31T03:49:20;98702.78;;;10.51;100.00
14612;BME280;7392;52.078;11.650;2023-10-31T03:51:48;98709.91;;;10.51;100.00
14612;BME280;7392;52.078;11.650;2023-10-31T03:54:17;98720.47;;;10.52;100.00
14612;BME280;7392;52.078;11.650;2023-10-31T03:56:45;98706.31;;;10.52;100.00
14612;BME280;7392;52.078;11.650;2023-10-31T03:59:12;98701.88;;;10.52;100.00
14612;BME280;7392;52.078;11.650;2023-10-31T04:01:40;98711.50;;;10.55;100.00
14612;BME280;7392;52.078;11.650;2023-10-31T04:04:09;98710.66;;;10.54;100.00
14612;BME280;7392;52.078;11.650;2023-10-31T04:06:37;98708.91;;;10.53;100.00
14612;BME280;7392;52.078;11.650;2023-10-31T04:09:07;98703.53;;;10.55;100.00
14612;BME280;7392;52.078;11.650;2023-10-31T04:11:35;98705.34;;;10.54;100.00
14612;BME280;7392;52.078;11.650;2023-10-31T04:14:03;98707.09;;;10.54;100.00
14612;BME280;7392;52.078;11.650;2023-10-31T04:16:32;98713.31;;;10.54;100.00
14612;BME280;7392;52.078;11.650;2023-10-31T04:19:05;98715.97;;;10.54;100.00
14612;BME280;7392;52.078;11.650;2023-10-31T04:21:34;98707.94;;;10.56;100.00
14612;BME280;7392;52.078;11.650;2023-10-31T04:24:04;98701.75;;;10.55;100.00
14612;BME280;7392;52.078;11.650;2023-10-31T04:26:32;98708.81;;;10.56;100.00
14612;BME280;7392;52.078;11.650;2023-10-31T04:28:59;98706.16;;;10.56;100.00
14612;BME280;7392;52.078;11.650;2023-10-31T04:31:27;98703.50;;;10.56;100.00
14612;BME280;7392;52.078;11.650;2023-10-31T04:34:07;98701.69;;;10.57;100.00
14612;BME280;7392;52.078;11.650;2023-10-31T04:36:36;98703.44;;;10.58;100.00
14612;BME280;7392;52.078;11.650;2023-10-31T04:39:04;98700.78;;;10.58;100.00
14612;BME280;7392;52.078;11.650;2023-10-31T04:41:32;98693.75;;;10.57;100.00
14612;BME280;7392;52.078;11.650;2023-10-31T04:44:00;98706.16;;;10.56;100.00
14612;BME280;7392;52.078;11.650;2023-10-31T04:46:27;98711.34;;;10.59;100.00
14612;BME280;7392;52.078;11.650;2023-10-31T04:48:55;98710.47;;;10.59;100.00
14612;BME280;7392;52.078;11.650;2023-10-31T04:51:23;98710.38;;;10.62;100.00
14612;BME280;7392;52.078;11.650;2023-10-31T04:53:52;98714.78;;;10.63;100.00
14612;BME280;7392;52.078;11.650;2023-10-31T04:56:20;98714.72;;;10.64;100.00
14612;BME280;7392;52.078;11.650;2023-10-31T04:58:48;98708.47;;;10.65;100.00
14612;BME280;7392;52.078;11.650;2023-10-31T05:01:16;98712.88;;;10.66;100.00
14612;BME280;7392;52.078;11.650;2023-10-31T05:03:43;98706.66;;;10.68;100.00
14612;BME280;7392;52.078;11.650;2023-10-31T05:06:19;98702.22;;;10.68;100.00
14612;BME280;7392;52.078;11.650;2023-10-31T05:08:47;98714.53;;;10.69;100.00
14612;BME280;7392;52.078;11.650;2023-10-31T05:11:17;98717.16;;;10.71;100.00
14612;BME280;7392;52.078;11.650;2023-10-31T05:13:45;98720.69;;;10.71;100.00
14612;BME280;7392;52.078;11.650;2023-10-31T05:16:13;98722.34;;;10.74;100.00
14612;BME280;7392;52.078;11.650;2023-10-31T05:18:41;98722.34;;;10.74;100.00
14612;BME280;7392;52.078;11.650;2023-10-31T05:21:09;98710.81;;;10.75;100.00
14612;BME280;7392;52.078;11.650;2023-10-31T05:23:37;98713.38;;;10.78;100.00
14612;BME280;7392;52.078;11.650;2023-10-31T05:26:05;98718.56;;;10.81;100.00
14612;BME280;7392;52.078;11.650;2023-10-31T05:28:34;98715.00;;;10.82;100.00
14612;BME280;7392;52.078;11.650;2023-10-31T05:31:02;98721.91;;;10.86;100.00
14612;BME280;7392;52.078;11.650;2023-10-31T05:33:31;98727.94;;;10.91;100.00
14612;BME280;7392;52.078;11.650;2023-10-31T05:35:58;98749.94;;;10.95;100.00
14612;BME280;7392;52.078;11.650;2023-10-31T05:38:26;98760.47;;;10.98;100.00
14612;BME280;7392;52.078;11.650;2023-10-31T05:40:54;98755.16;;;10.98;100.00
14612;BME280;7392;52.078;11.650;2023-10-31T05:43:22;98752.59;;;10.95;100.00
14612;BME280;7392;52.078;11.650;2023-10-31T05:45:51;98760.69;;;10.92;100.00
14612;BME280;7392;52.078;11.650;2023-10-31T05:48:19;98761.69;;;10.88;100.00
14612;BME280;7392;52.078;11.650;2023-10-31T05:50:47;98779.47;;;10.85;100.00
14612;BME280;7392;52.078;11.650;2023-10-31T05:53:15;98774.44;;;10.78;100.00
14612;BME280;7392;52.078;11.650;2023-10-31T05:55:43;98769.25;;;10.75;100.00
14612;BME280;7392;52.078;11.650;2023-10-31T05:58:10;98776.44;;;10.71;100.00
14612;BME280;7392;52.078;11.650;2023-10-31T06:00:39;98776.59;;;10.66;100.00
14612;BME280;7392;52.078;11.650;2023-10-31T06:03:08;98791.00;;;10.59;100.00
14612;BME280;7392;52.078;11.650;2023-10-31T06:05:36;98795.53;;;10.56;100.00
14612;BME280;7392;52.078;11.650;2023-10-31T06:08:04;98817.72;;;10.53;100.00
14612;BME280;7392;52.078;11.650;2023-10-31T06:10:31;98816.97;;;10.50;100.00
14612;BME280;7392;52.078;11.650;2023-10-31T06:12:59;98836.56;;;10.45;100.00
14612;BME280;7392;52.078;11.650;2023-10-31T06:15:27;98845.47;;;10.43;100.00
14612;BME280;7392;52.078;11.650;2023-10-31T06:17:55;98854.47;;;10.39;100.00
14612;BME280;7392;52.078;11.650;2023-10-31T06:20:24;98864.22;;;10.37;100.00
14612;BME280;7392;52.078;11.650;2023-10-31T06:22:52;98859.97;;;10.31;100.00
14612;BME280;7392;52.078;11.650;2023-10-31T06:25:20;98863.59;;;10.28;100.00
14612;BME280;7392;52.078;11.650;2023-10-31T06:27:47;98863.75;;;10.22;100.00
14612;BME280;7392;52.078;11.650;2023-10-31T06:30:16;98859.47;;;10.18;100.00
14612;BME280;7392;52.078;11.650;2023-10-31T06:32:54;98857.00;;;10.12;100.00
14612;BME280;7392;52.078;11.650;2023-10-31T06:35:23;98860.72;;;10.06;100.00
14612;BME280;7392;52.078;11.650;2023-10-31T06:37:53;98859.06;;;10.02;100.00
14612;BME280;7392;52.078;11.650;2023-10-31T06:40:21;98861.94;;;9.95;100.00
14612;BME280;7392;52.078;11.650;2023-10-31T06:42:49;98860.19;;;9.93;100.00
14612;BME280;7392;52.078;11.650;2023-10-31T06:45:17;98861.16;;;9.91;100.00
14612;BME280;7392;52.078;11.650;2023-10-31T06:47:45;98863.13;;;9.84;100.00
14612;BME280;7392;52.078;11.650;2023-10-31T06:50:13;98869.41;;;9.80;100.00
14612;BME280;7392;52.078;11.650;2023-10-31T06:52:46;98873.13;;;9.74;100.00
14612;BME280;7392;52.078;11.650;2023-10-31T06:55:14;98887.34;;;9.72;100.00
14612;BME280;7392;52.078;11.650;2023-10-31T06:57:42;98871.50;;;9.69;100.00
14612;BME280;7392;52.078;11.650;2023-10-31T07:00:11;98864.47;;;9.68;100.00
14612;BME280;7392;52.078;11.650;2023-10-31T07:02:39;98868.91;;;9.67;100.00
14612;BME280;7392;52.078;11.650;2023-10-31T07:05:07;98868.03;;;9.67;100.00
14612;BME280;7392;52.078;11.650;2023-10-31T07:07:36;98868.97;;;9.64;100.00
14612;BME280;7392;52.078;11.650;2023-10-31T07:10:06;98870.78;;;9.64;100.00
14612;BME280;7392;52.078;11.650;2023-10-31T07:12:35;98876.06;;;9.64;100.00
14612;BME280;7392;52.078;11.650;2023-10-31T07:15:03;98868.97;;;9.64;100.00
14612;BME280;7392;52.078;11.650;2023-10-31T07:17:31;98884.00;;;9.65;100.00
14612;BME280;7392;52.078;11.650;2023-10-31T07:19:59;98887.53;;;9.64;100.00
14612;BME280;7392;52.078;11.650;2023-10-31T07:22:27;98883.94;;;9.67;100.00
14612;BME280;7392;52.078;11.650;2023-10-31T07:24:55;98885.66;;;9.68;100.00
14612;BME280;7392;52.078;11.650;2023-10-31T07:27:25;98883.84;;;9.70;100.00
14612;BME280;7392;52.078;11.650;2023-10-31T07:29:53;98895.22;;;9.73;100.00
14612;BME280;7392;52.078;11.650;2023-10-31T07:32:21;98894.28;;;9.76;100.00
14612;BME280;7392;52.078;11.650;2023-10-31T07:34:49;98901.25;;;9.79;100.00
14612;BME280;7392;52.078;11.650;2023-10-31T07:37:17;98899.44;;;9.82;100.00
14612;BME280;7392;52.078;11.650;2023-10-31T07:39:45;98910.72;;;9.89;100.00
14612;BME280;7392;52.078;11.650;2023-10-31T07:42:12;98907.16;;;9.90;100.00
14612;BME280;7392;52.078;11.650;2023-10-31T07:44:42;98915.91;;;9.92;100.00
14612;BME280;7392;52.078;11.650;2023-10-31T07:47:09;98914.03;;;9.96;100.00
14612;BME280;7392;52.078;11.650;2023-10-31T07:49:37;98922.81;;;9.99;100.00
14612;BME280;7392;52.078;11.650;2023-10-31T07:52:05;98928.91;;;10.03;100.00
14612;BME280;7392;52.078;11.650;2023-10-31T07:54:33;98920.00;;;10.04;100.00
14612;BME280;7392;52.078;11.650;2023-10-31T07:57:01;98920.78;;;10.07;100.00
14612;BME280;7392;52.078;11.650;2023-10-31T07:59:28;98923.31;;;10.12;100.00
14612;BME280;7392;52.078;11.650;2023-10-31T08:01:58;98925.03;;;10.15;100.00
14612;BME280;7392;52.078;11.650;2023-10-31T08:04:26;98931.16;;;10.17;100.00
14612;BME280;7392;52.078;11.650;2023-10-31T08:06:54;98925.81;;;10.18;100.00
14612;BME280;7392;52.078;11.650;2023-10-31T08:09:22;98945.16;;;10.22;100.00
14612;BME280;7392;52.078;11.650;2023-10-31T08:11:50;98941.38;;;10.29;100.00
14612;BME280;7392;52.078;11.650;2023-10-31T08:14:18;98942.16;;;10.34;100.00
14612;BME280;7392;52.078;11.650;2023-10-31T08:16:46;98945.59;;;10.38;100.00
14612;BME280;7392;52.078;11.650;2023-10-31T08:19:15;98950.72;;;10.44;100.00
14612;BME280;7392;52.078;11.650;2023-10-31T08:21:43;98954.16;;;10.47;100.00
14612;BME280;7392;52.078;11.650;2023-10-31T08:24:14;98954.06;;;10.51;100.00
14612;BME280;7392;52.078;11.650;2023-10-31T08:26:42;98964.56;;;10.54;100.00
14612;BME280;7392;52.078;11.650;2023-10-31T08:29:10;98968.97;;;10.55;100.00
14612;BME280;7392;52.078;11.650;2023-10-31T08:31:38;98966.22;;;10.58;100.00
14612;BME280;7392;52.078;11.650;2023-10-31T08:34:05;98995.28;;;10.62;100.00
14612;BME280;7392;52.078;11.650;2023-10-31T08:36:34;98981.19;;;10.60;100.00
14612;BME280;7392;52.078;11.650;2023-10-31T08:39:02;98986.44;;;10.62;100.00
14612;BME280;7392;52.078;11.650;2023-10-31T08:41:31;99000.50;;;10.65;100.00
14612;BME280;7392;52.078;11.650;2023-10-31T08:43:58;99003.09;;;10.67;100.00
14612;BME280;7392;52.078;11.650;2023-10-31T08:46:29;99002.13;;;10.71;100.00
14612;BME280;7392;52.078;11.650;2023-10-31T08:48:58;99000.22;;;10.75;100.00
14612;BME280;7392;52.078;11.650;2023-10-31T08:51:25;99009.75;;;10.82;100.00
14612;BME280;7392;52.078;11.650;2023-10-31T08:53:55;98999.75;;;10.90;100.00
14612;BME280;7392;52.078;11.650;2023-10-31T08:56:22;99014.53;;;10.99;100.00
14612;BME280;7392;52.078;11.650;2023-10-31T08:58:50;99015.31;;;11.02;100.00
14612;BME280;7392;52.078;11.650;2023-10-31T09:01:18;99019.72;;;11.03;100.00
14612;BME280;7392;52.078;11.650;2023-10-31T09:03:46;99018.72;;;11.06;100.00
14612;BME280;7392;52.078;11.650;2023-10-31T09:06:14;99029.28;;;11.09;100.00
14612;BME280;7392;52.078;11.650;2023-10-31T09:08:42;99033.63;;;11.10;100.00
14612;BME280;7392;52.078;11.650;2023-10-31T09:11:11;99033.72;;;11.09;100.00
14612;BME280;7392;52.078;11.650;2023-10-31T09:13:39;99036.38;;;11.09;100.00
14612;BME280;7392;52.078;11.650;2023-10-31T09:16:07;99032.81;;;11.08;100.00
14612;BME280;7392;52.078;11.650;2023-10-31T09:18:36;99037.25;;;11.09;100.00
14612;BME280;7392;52.078;11.650;2023-10-31T09:21:04;99035.41;;;11.11;100.00
14612;BME280;7392;52.078;11.650;2023-10-31T09:23:32;99049.50;;;11.13;100.00
14612;BME280;7392;52.078;11.650;2023-10-31T09:26:00;99044.94;;;11.17;100.00
14612;BME280;7392;52.078;11.650;2023-10-31T09:28:30;99043.09;;;11.20;100.00
14612;BME280;7392;52.078;11.650;2023-10-31T09:30:58;99042.97;;;11.23;100.00
14612;BME280;7392;52.078;11.650;2023-10-31T09:33:28;99047.34;;;11.26;100.00
14612;BME280;7392;52.078;11.650;2023-10-31T09:35:56;99045.53;;;11.27;100.00
14612;BME280;7392;52.078;11.650;2023-10-31T09:38:23;99046.34;;;11.29;100.00
14612;BME280;7392;52.078;11.650;2023-10-31T09:40:54;99046.31;;;11.30;100.00
14612;BME280;7392;52.078;11.650;2023-10-31T09:43:22;99050.66;;;11.33;100.00
14612;BME280;7392;52.078;11.650;2023-10-31T09:45:52;99047.59;;;11.45;100.00
14612;BME280;7392;52.078;11.650;2023-10-31T09:48:20;99039.31;;;11.54;100.00
14612;BME280;7392;52.078;11.650;2023-10-31T09:50:48;99041.66;;;11.65;100.00
14612;BME280;7392;52.078;11.650;2023-10-31T09:53:16;99045.88;;;11.71;100.00
14612;BME280;7392;52.078;11.650;2023-10-31T09:55:45;99038.66;;;11.74;100.00
14612;BME280;7392;52.078;11.650;2023-10-31T09:58:13;99048.25;;;11.78;100.00
14612;BME280;7392;52.078;11.650;2023-10-31T10:00:41;99050.81;;;11.82;100.00
14612;BME280;7392;52.078;11.650;2023-10-31T10:03:11;99046.25;;;11.85;100.00
14612;BME280;7392;52.078;11.650;2023-10-31T10:05:39;99063.13;;;11.86;100.00
14612;BME280;7392;52.078;11.650;2023-10-31T10:08:07;99059.50;;;11.87;100.00
14612;BME280;7392;52.078;11.650;2023-10-31T10:10:35;99063.94;;;11.88;100.00
14612;BME280;7392;52.078;11.650;2023-10-31T10:13:03;99072.69;;;11.91;100.00
14612;BME280;7392;52.078;11.650;2023-10-31T10:15:43;99079.84;;;11.89;100.00
14612;BME280;7392;52.078;11.650;2023-10-31T10:18:24;99080.69;;;11.91;100.00
14612;BME280;7392;52.078;11.650;2023-10-31T10:20:56;99071.84;;;11.91;100.00
14612;BME280;7392;52.078;11.650;2023-10-31T10:23:25;99080.59;;;11.94;100.00
14612;BME280;7392;52.078;11.650;2023-10-31T10:25:54;99080.50;;;11.97;100.00
14612;BME280;7392;52.078;11.650;2023-10-31T10:28:22;99081.44;;;11.95;100.00
14612;BME280;7392;52.078;11.650;2023-10-31T10:30:52;99096.53;;;11.94;100.00
14612;BME280;7392;52.078;11.650;2023-10-31T10:33:24;99090.28;;;11.95;100.00
14612;BME280;7392;52.078;11.650;2023-10-31T10:35:54;99094.84;;;11.92;100.00
14612;BME280;7392;52.078;11.650;2023-10-31T10:38:23;99124.19;;;11.89;100.00
14612;BME280;7392;52.078;11.650;2023-10-31T10:40:53;99118.22;;;11.82;100.00
14612;BME280;7392;52.078;11.650;2023-10-31T10:43:24;99108.66;;;11.75;100.00
14612;BME280;7392;52.078;11.650;2023-10-31T10:45:54;99123.00;;;11.71;100.00
14612;BME280;7392;52.078;11.650;2023-10-31T10:48:26;99122.38;;;11.63;100.00
14612;BME280;7392;52.078;11.650;2023-10-31T10:50:59;99123.41;;;11.58;100.00
14612;BME280;7392;52.078;11.650;2023-10-31T10:53:30;99114.78;;;11.50;100.00
14612;BME280;7392;52.078;11.650;2023-10-31T10:56:12;99108.78;;;11.44;100.00
14612;BME280;7392;52.078;11.650;2023-10-31T10:58:44;99109.81;;;11.39;100.00
14612;BME280;7392;52.078;11.650;2023-10-31T11:01:19;99104.69;;;11.33;100.00
14612;BME280;7392;52.078;11.650;2023-10-31T11:03:48;99114.41;;;11.34;100.00
14612;BME280;7392;52.078;11.650;2023-10-31T11:06:18;99110.38;;;11.49;100.00
14612;BME280;7392;52.078;11.650;2023-10-31T11:08:47;99115.38;;;11.60;100.00
14612;BME280;7392;52.078;11.650;2023-10-31T11:11:15;99119.31;;;11.75;100.00
14612;BME280;7392;52.078;11.650;2023-10-31T11:13:43;99124.38;;;11.83;100.00
14612;BME280;7392;52.078;11.650;2023-10-31T11:16:30;99118.72;;;11.93;100.00
14612;BME280;7392;52.078;11.650;2023-10-31T11:19:03;99118.59;;;11.98;100.00
14612;BME280;7392;52.078;11.650;2023-10-31T11:21:31;99111.53;;;11.97;100.00
14612;BME280;7392;52.078;11.650;2023-10-31T11:23:59;99128.47;;;11.94;100.00
14612;BME280;7392;52.078;11.650;2023-10-31T11:26:30;99122.41;;;11.89;100.00
14612;BME280;7392;52.078;11.650;2023-10-31T11:29:06;99121.63;;;11.86;100.00
14612;BME280;7392;52.078;11.650;2023-10-31T11:31:37;99130.56;;;11.83;100.00
14612;BME280;7392;52.078;11.650;2023-10-31T11:34:07;99123.66;;;11.77;100.00
14612;BME280;7392;52.078;11.650;2023-10-31T11:36:36;99121.88;;;11.78;100.00
14612;BME280;7392;52.078;11.650;2023-10-31T11:39:12;99145.00;;;11.76;100.00
14612;BME280;7392;52.078;11.650;2023-10-31T11:41:45;99138.91;;;11.72;100.00
14612;BME280;7392;52.078;11.650;2023-10-31T11:44:16;99127.28;;;11.75;100.00
14612;BME280;7392;52.078;11.650;2023-10-31T11:46:44;99142.41;;;11.73;100.00
14612;BME280;7392;52.078;11.650;2023-10-31T11:49:18;99152.19;;;11.72;100.00
14612;BME280;7392;52.078;11.650;2023-10-31T11:51:46;99153.91;;;11.73;100.00
14612;BME280;7392;52.078;11.650;2023-10-31T11:54:15;99154.03;;;11.70;100.00
14612;BME280;7392;52.078;11.650;2023-10-31T11:56:50;99162.97;;;11.68;100.00
14612;BME280;7392;52.078;11.650;2023-10-31T11:59:18;99166.50;;;11.68;100.00
14612;BME280;7392;52.078;11.650;2023-10-31T12:01:46;99178.84;;;11.71;100.00
14612;BME280;7392;52.078;11.650;2023-10-31T12:04:22;99185.22;;;11.65;100.00
14612;BME280;7392;52.078;11.650;2023-10-31T12:06:58;99184.47;;;11.62;100.00
14612;BME280;7392;52.078;11.650;2023-10-31T12:09:26;99197.94;;;11.55;100.00
14612;BME280;7392;52.078;11.650;2023-10-31T12:11:57;99185.59;;;11.53;100.00
14612;BME280;7392;52.078;11.650;2023-10-31T12:14:25;99190.84;;;11.54;100.00
14612;BME280;7392;52.078;11.650;2023-10-31T12:16:53;99189.13;;;11.53;100.00
14612;BME280;7392;52.078;11.650;2023-10-31T12:19:23;99186.53;;;11.52;100.00
14612;BME280;7392;52.078;11.650;2023-10-31T12:21:51;99194.44;;;11.53;100.00
14612;BME280;7392;52.078;11.650;2023-10-31T12:24:18;99198.75;;;11.57;100.00
14612;BME280;7392;52.078;11.650;2023-10-31T12:26:46;99200.41;;;11.62;100.00
14612;BME280;7392;52.078;11.650;2023-10-31T12:29:16;99194.16;;;11.63;100.00
14612;BME280;7392;52.078;11.650;2023-10-31T12:31:45;99205.53;;;11.68;100.00
14612;BME280;7392;52.078;11.650;2023-10-31T12:34:14;99210.44;;;11.80;100.00
14612;BME280;7392;52.078;11.650;2023-10-31T12:36:45;99207.66;;;11.85;100.00
14612;BME280;7392;52.078;11.650;2023-10-31T12:39:15;99214.63;;;11.89;100.00
14612;BME280;7392;52.078;11.650;2023-10-31T12:41:44;99231.44;;;11.91;100.00
14612;BME280;7392;52.078;11.650;2023-10-31T12:44:15;99227.84;;;11.92;99.40
14612;BME280;7392;52.078;11.650;2023-10-31T12:46:45;99234.94;;;11.93;99.89
14612;BME280;7392;52.078;11.650;2023-10-31T12:49:17;99231.19;;;11.98;98.86
14612;BME280;7392;52.078;11.650;2023-10-31T12:51:57;99234.78;;;11.97;100.00
14612;BME280;7392;52.078;11.650;2023-10-31T12:54:30;99243.53;;;12.01;100.00
14612;BME280;7392;52.078;11.650;2023-10-31T12:57:02;99244.44;;;12.00;100.00
14612;BME280;7392;52.078;11.650;2023-10-31T12:59:35;99244.34;;;12.03;100.00